Pos First Name Last Name YOB Country Start
Num
Time Swim T1 Bike T2 Run
1 Takumi Hojo 1996 JPN 1 00:56:03 00:09:10 00:00:00 00:30:49 00:00:00 00:16:04
2 Jumpei Furuya 1991 JPN 2 00:56:28 00:09:10 00:00:00 00:30:47 00:00:00 00:16:31
3 Kenji Nener 1993 JPN 6 00:56:34 00:09:15 00:00:00 00:31:18 00:00:00 00:16:01
4 Luke Schofield 1999 AUS 39 00:56:43 00:09:41 00:00:00 00:31:26 00:00:00 00:15:36
5 Luke Bate 1999 AUS 16 00:56:44 00:09:27 00:00:00 00:31:40 00:00:00 00:15:37
6 Koki Yamamoto 1996 JPN 9 00:56:44 00:09:12 00:00:00 00:30:49 00:00:00 00:16:43
7 Lorcan Redmond 2000 AUS 15 00:56:47 00:09:38 00:00:00 00:31:29 00:00:00 00:15:40
8 Kyotaro Yoshikawa 2000 JPN 23 00:56:47 00:09:10 00:00:00 00:30:49 00:00:00 00:16:48
9 Lukas Pertl 1995 AUT 7 00:56:50 00:09:37 00:00:00 00:31:29 00:00:00 00:15:44
10 Alec Wilimovsky 1997 USA 20 00:56:54 00:09:01 00:00:00 00:30:59 00:00:00 00:16:54
11 Jayden Schofield 1999 AUS 48 00:56:58 00:09:43 00:00:00 00:31:26 00:00:00 00:15:49
12 Ryousuke Maeda 1995 JPN 10 00:57:25 00:09:14 00:00:00 00:30:44 00:00:00 00:17:27
13 Joshua Ferris 2001 AUS 30 00:57:31 00:09:32 00:00:00 00:31:34 00:00:00 00:16:25
14 Clayton Hutchins 1995 USA 19 00:57:37 00:09:25 00:00:00 00:31:43 00:00:00 00:16:29
15 Taishi Furuyama 1995 JPN 14 00:57:49 00:09:19 00:00:00 00:31:49 00:00:00 00:16:41
16 Yuichi Hosoda 1984 JPN 5 00:58:05 00:09:17 00:00:00 00:31:51 00:00:00 00:16:57
17 Shiruba Taniguchi 1994 JPN 11 00:58:06 00:09:18 00:00:00 00:31:48 00:00:00 00:17:00
18 Takaya Sukizaki 1994 JPN 22 00:58:08 00:09:29 00:00:00 00:31:42 00:00:00 00:16:57
19 Shogo Ishitsuka 1989 JPN 3 00:58:12 00:09:16 00:00:00 00:31:53 00:00:00 00:17:03
20 Yuki Umeda 1985 JPN 28 00:58:15 00:09:37 00:00:00 00:32:06 00:00:00 00:16:32
21 Troy Whittington 1999 AUS 44 00:58:26 00:09:45 00:00:00 00:31:56 00:00:00 00:16:45
22 Hamish Babin 1997 CAN 27 00:58:29 00:09:21 00:00:00 00:31:49 00:00:00 00:17:19
23 Kurt Mcdonald 1999 AUS 41 00:58:38 00:09:34 00:00:00 00:32:08 00:00:00 00:16:56
24 Lachlan Jones 2000 AUS 40 00:58:40 00:09:31 00:00:00 00:31:37 00:00:00 00:17:32
25 Jack Sosinski 1999 AUS 43 00:58:46 00:09:52 00:00:00 00:31:49 00:00:00 00:17:05
26 Kotaro Watanabe 1994 JPN 18 00:59:00 00:09:18 00:00:00 00:31:51 00:00:00 00:17:51
27 Noritake Nagasho 1999 JPN 35 00:59:02 00:09:52 00:00:00 00:32:23 00:00:00 00:16:47
28 Teppei Tokuyama 2002 JPN 47 00:59:05 00:09:48 00:00:00 00:31:54 00:00:00 00:17:23
29 Satoshi Iwamoto 1996 JPN 34 00:59:10 00:09:19 00:00:00 00:32:59 00:00:00 00:16:52
30 Liam Mccoach 1998 AUS 12 00:59:16 00:09:23 00:00:00 00:32:54 00:00:00 00:16:59
31 Josh Hemara 1988 NZL 36 00:59:21 00:09:33 00:00:00 00:32:08 00:00:00 00:17:40
32 Aoba Yasumatsu 1997 JPN 8 00:59:37 00:09:52 00:00:00 00:32:24 00:00:00 00:17:21
33 Toshiki Sakakibara 1994 JPN 49 00:59:39 00:09:35 00:00:00 00:33:12 00:00:00 00:16:52
34 Kevin Bishop 1994 USA 21 00:59:44 00:09:39 00:00:00 00:33:05 00:00:00 00:17:00
35 Kurt Fryer 1998 AUS 50 00:59:46 00:09:16 00:00:00 00:33:36 00:00:00 00:16:54
36 Ji Hong Lee 1992 KOR 31 00:59:47 00:09:34 00:00:00 00:33:14 00:00:00 00:16:59
37 Daniel Coleman 1995 AUS 17 00:59:47 00:09:43 00:00:00 00:33:02 00:00:00 00:17:02
38 Yosuke Yamashita 1993 JPN 42 00:59:47 00:09:33 00:00:00 00:32:44 00:00:00 00:17:30
39 Ryosuke Yamamoto 1979 JPN 53 00:59:58 00:09:45 00:00:00 00:33:02 00:00:00 00:17:11
40 Yuuki Oketani 1988 JPN 45 00:59:59 00:09:32 00:00:00 00:32:11 00:00:00 00:18:16
41 Kevin Jervis 1994 USA 33 01:00:04 00:09:46 00:00:00 00:33:27 00:00:00 00:16:51
42 Tzu I Pan 2000 TPE 37 01:00:06 00:09:26 00:00:00 00:32:52 00:00:00 00:17:48
43 Ruka Kai 2000 JPN 58 01:00:08 00:09:38 00:00:00 00:32:04 00:00:00 00:18:26
44 Malcolm King 1992 NZL 56 01:00:32 00:09:36 00:00:00 00:32:40 00:00:00 00:18:16
45 Genta Uchida 1997 JPN 4 01:00:48 00:09:17 00:00:00 00:31:53 00:00:00 00:19:38
46 Takanori Sugihara 1994 JPN 25 01:01:01 00:09:46 00:00:00 00:32:31 00:00:00 00:18:44
47 Akira Fukushima 2001 JPN 60 01:01:17 00:09:47 00:00:00 00:33:00 00:00:00 00:18:30
48 Masatoshi Takahashi 1992 JPN 74 01:01:24 00:10:01 00:00:00 00:33:56 00:00:00 00:17:27
49 Benjamin Zorgnotti 1994 TAH 38 01:01:26 00:10:03 00:00:00 00:32:43 00:00:00 00:18:40
50 Touki Maeda 1999 JPN 72 01:01:36 00:10:03 00:00:00 00:33:54 00:00:00 00:17:39
51 Masato Ijiri 2000 JPN 65 01:01:51 00:09:54 00:00:00 00:34:04 00:00:00 00:17:53
52 Jake Hynes 1999 AUS 69 01:02:05 00:10:07 00:00:00 00:33:50 00:00:00 00:18:08
53 Mitsuho Mochizuki 2000 JPN 26 01:02:09 00:09:13 00:00:00 00:31:56 00:00:00 00:21:00
54 Chin Wa Wong 2000 MAC 52 01:02:12 00:10:05 00:00:00 00:33:54 00:00:00 00:18:13
55 Yuya Otani 2002 JPN 70 01:02:18 00:10:03 00:00:00 00:33:54 00:00:00 00:18:21
56 Kirimaru Masuda 1996 JPN 57 01:02:21 00:10:36 00:00:00 00:34:53 00:00:00 00:16:52
57 Shunsuke Nakao 1997 JPN 75 01:02:38 00:10:06 00:00:00 00:33:49 00:00:00 00:18:43
58 Koyo Yamasaki 1998 JPN 51 01:02:43 00:10:00 00:00:00 00:33:59 00:00:00 00:18:44
59 Man Kit Chao 1995 MAC 71 01:02:49 00:10:02 00:00:00 00:33:54 00:00:00 00:18:53
60 Chikara Oshima 2003 JPN 66 01:02:51 00:10:14 00:00:00 00:34:43 00:00:00 00:17:54
61 Rui Ohashi 2003 JPN 59 01:02:56 00:09:58 00:00:00 00:33:58 00:00:00 00:19:00
62 Nathan F. Cohen 1998 USA 62 01:03:08 00:10:26 00:00:00 00:33:51 00:00:00 00:18:51
63 Joji Nitta 1994 JPN 29 01:04:10 00:09:47 00:00:00 00:34:14 00:00:00 00:20:09
64 Rogerio Jose Carreira Chiu 1979 MAC 54 01:04:26 00:10:21 00:00:00 00:34:13 00:00:00 00:19:52
65 Shota Ban 2000 JPN 68 01:04:34 00:10:14 00:00:00 00:34:47 00:00:00 00:19:33
66 Sorachi Okamoto 2002 JPN 67 01:05:33 00:09:46 00:00:00 00:34:14 00:00:00 00:21:33
67 Shoya Yamanaka 2002 JPN 61 01:07:28 00:10:16 00:00:00 00:35:51 00:00:00 00:21:21
DNS Kenta Asakai 1994 JPN 32 DNS 00:00:00 00:00:00 00:00:00 00:00:00 00:00:00
LAP Syoma Akino 1999 JPN 55 LAP 00:10:07 00:00:00 00:00:00 00:00:00 00:00:00
DNF Yuya Shimizu 1998 JPN 64 DNF 00:10:45 00:00:00 00:00:00 00:00:00 00:00:00
DNF Hayato Ogawa 1999 JPN 73 DNF 00:09:20 00:00:00 00:00:00 00:00:00 00:00:00
Program notes:

Technical delegate: Andrew Tai/TPE. Head referee: Tatsuya Nakasone . Competition jury: Andrew Tai/TPE, Shin Otsuka/JPN, Akira Umekagi/JPN.
Distances; Swim 750 m (1 lap); bike 20 km (5 laps), Run 4.984 km (2 laps)
Water temperature 26.0°. Air temperature 24.0°. WBGT 22.9°. Humedity 71%. Wetsuits not allowed.
Athlete #74 Takahashi/JPN served a 10 seconds penalty during the run segment.